Latest Weather Observations for Newdegate

IDW60801

Issued at 9:03 pm WST Sunday 5 July 2015 (issued every 30 minutes, with the page automatically refreshed every 10 minutes)

About weather observations | Map of weather stations | Latest weather observations for WA | Other Formats
Station Details ID: 010692 Name: NEWDEGATE RESEARCH STATION Lat: -33.11 Lon: 118.84 Height: 320.0 m
Data from the previous 72 hours. | See also: Recent months at Newdegate
Date/Time
WST
Temp
°C
App
Temp
°C
Dew
Point
Rel
Hum
%
Delta-T
°C
Wind Press
QNH
hPa
Press
MSL
hPa
Rain
since 9 am
mm
Dir
 
Spd
km/h
Gust
km/h
Spd
kts
Gust
kts
05/09:00pm 10.2 8.7 8.5 89 0.8 W 6 6 3 3 1021.6 1022.0 0.0
05/08:30pm 11.0 9.7 9.1 88 1.0 WNW 6 7 3 4 1021.5 1021.9 0.0
05/08:00pm 11.6 10.8 9.7 88 1.0 WNW 4 6 2 3 1021.3 1021.7 0.0
05/07:30pm 11.9 11.1 9.6 86 1.2 WNW 4 6 2 3 1021.1 1021.4 0.0
05/07:00pm 12.5 11.8 10.2 86 1.2 NW 4 6 2 3 1021.0 1021.3 0.0
05/06:30pm 12.7 11.7 10.2 85 1.3 NW 6 7 3 4 1021.0 1021.3 0.0
05/06:00pm 12.8 12.5 10.2 84 1.4 W 2 6 1 3 1020.7 1021.0 0.0
05/05:30pm 12.8 12.0 9.8 82 1.6 W 4 6 2 3 1020.4 1020.7 0.0
05/05:00pm 13.5 12.4 10.1 80 1.8 WNW 6 7 3 4 1020.4 1020.7 0.0
05/04:30pm 13.8 12.7 10.0 78 2.0 W 6 11 3 6 1020.3 1020.6 0.0
05/04:00pm 13.9 12.8 10.5 80 1.8 WNW 7 9 4 5 1020.2 1020.5 0.0
05/03:30pm 14.0 12.4 10.2 78 2.0 WNW 9 13 5 7 1020.1 1020.4 0.0
05/03:00pm 14.1 12.4 9.9 76 2.2 WNW 9 13 5 7 1020.1 1020.4 0.0
05/02:30pm 13.8 12.3 10.4 80 1.8 WNW 9 15 5 8 1020.2 1020.5 0.0
05/02:00pm 13.9 11.7 9.5 75 2.3 NW 11 15 6 8 1020.1 1020.4 0.0
05/01:30pm 14.4 12.3 9.8 74 2.4 NW 11 13 6 7 1020.1 1020.4 0.0
05/01:00pm 14.0 12.3 10.0 77 2.1 NW 9 15 5 8 1020.3 1020.6 0.0
05/12:30pm 13.9 12.6 10.1 78 2.0 NW 7 11 4 6 1020.7 1021.0 0.0
05/12:00pm 13.3 11.6 9.7 79 1.9 NNW 9 13 5 7 1021.0 1021.3 0.0
05/11:30am 13.4 12.3 9.8 79 1.9 NW 6 6 3 3 1021.3 1021.7 0.0
05/11:00am 12.8 11.5 10.0 83 1.5 WNW 7 9 4 5 1021.7 1022.1 0.0
05/10:30am 12.7 11.4 10.1 84 1.4 W 7 9 4 5 1021.8 1022.2 0.0
05/10:00am 12.2 11.5 10.1 87 1.1 WSW 4 6 2 3 1022.0 1022.4 0.0
05/09:30am 11.7 11.0 9.9 89 0.9 W 4 7 2 4 1021.8 1022.2 0.0
05/09:00am 11.5 10.4 9.9 90 0.8 W 6 9 3 5 1021.7 1022.1 0.2
05/08:30am 11.3 10.2 9.9 91 0.7 WSW 6 9 3 5 1021.6 1022.0 0.2
05/08:00am 10.7 9.4 9.3 91 0.7 W 6 9 3 5 1021.2 1021.5 0.2
05/07:30am 10.3 8.9 8.7 90 0.8 WSW 6 9 3 5 1020.9 1021.2 0.2
05/07:00am 10.5 8.9 8.9 90 0.8 WSW 7 9 4 5 1020.8 1021.1 0.2
05/06:30am 10.6 9.0 8.9 89 0.9 WSW 7 9 4 5 1020.5 1020.8 0.0
05/06:00am 10.6 9.0 8.9 89 0.9 WSW 7 13 4 7 1020.2 1020.5 0.0
05/05:30am 10.6 8.7 8.9 89 0.9 W 9 13 5 7 1020.0 1020.3 0.0
05/05:00am 10.3 8.3 8.7 90 0.8 W 9 13 5 7 1020.0 1020.3 0.0
05/04:30am 9.6 7.1 8.0 90 0.8 W 11 13 6 7 1019.7 1020.0 0.0
05/04:00am 9.3 7.0 7.6 89 0.8 WNW 9 11 5 6 1019.8 1020.1 0.0
05/03:30am 9.3 7.4 7.6 89 0.8 WNW 7 9 4 5 1019.8 1020.1 0.0
05/03:00am 8.8 6.8 6.9 88 0.9 WNW 7 11 4 6 1019.9 1020.2 0.0
05/02:30am 9.0 7.0 7.1 88 0.9 W 7 11 4 6 1020.0 1020.3 0.0
05/02:00am 8.9 6.5 7.0 88 0.9 W 9 13 5 7 1020.1 1020.4 0.0
05/01:30am 9.2 7.2 7.2 87 1.0 W 7 11 4 6 1020.0 1020.3 0.0
05/01:00am 9.4 7.1 7.3 87 1.0 W 9 13 5 7 1020.1 1020.4 0.0
05/12:30am 9.9 7.7 7.8 87 1.0 W 9 17 5 9 1020.0 1020.3 0.0
05/12:00am 10.2 7.7 8.1 87 1.0 W 11 15 6 8 1020.2 1020.5 0.0
 
Date/Time
WST
Temp
°C
App
Temp
°C
Dew
Point
Rel
Hum
%
Delta-T
°C
Wind Press
QNH
hPa
Press
MSL
hPa
Rain
since 9 am
mm
Dir
 
Spd
km/h
Gust
km/h
Spd
kts
Gust
kts
04/11:30pm 10.2 9.1 8.3 88 0.9 W 4 7 2 4 1020.1 1020.4 0.0
04/11:00pm 10.8 8.9 9.1 89 0.9 W 9 15 5 8 1020.1 1020.4 0.0
04/10:30pm 10.7 9.2 9.0 89 0.9 WNW 7 9 4 5 1020.2 1020.5 0.0
04/10:00pm 10.7 9.3 9.0 89 0.9 WNW 6 9 3 5 1020.3 1020.6 0.0
04/09:30pm 10.4 8.9 8.5 88 0.9 W 6 7 3 4 1020.2 1020.5 0.0
04/09:00pm 10.8 9.4 8.7 87 1.1 WNW 6 7 3 4 1020.2 1020.5 0.0
04/08:30pm 11.4 10.0 9.0 85 1.2 WNW 6 9 3 5 1020.3 1020.6 0.0
04/08:00pm 12.4 11.2 9.6 83 1.4 WNW 6 9 3 5 1020.3 1020.6 0.0
04/07:30pm 13.2 12.2 10.2 82 1.6 WNW 6 9 3 5 1020.3 1020.6 0.0
04/07:00pm 13.4 12.2 10.2 81 1.7 WNW 7 9 4 5 1020.2 1020.5 0.0
04/06:30pm 13.6 12.4 10.2 80 1.8 WNW 7 9 4 5 1020.0 1020.3 0.0
04/06:00pm 14.1 12.5 10.1 77 2.1 WNW 9 13 5 7 1019.7 1020.0 0.0
04/05:30pm 14.7 12.8 9.1 69 2.9 NW 9 17 5 9 1019.6 1019.9 0.0
04/05:00pm 15.1 13.5 8.8 66 3.3 NW 7 11 4 6 1019.4 1019.7 0.0
04/04:30pm 16.7 14.6 9.6 63 3.8 NNW 11 15 6 8 1019.4 1019.7 0.0
04/04:00pm 17.9 14.9 9.3 57 4.6 NW 15 20 8 11 1019.5 1019.8 0.0
04/03:30pm 18.0 14.5 8.8 55 4.8 NW 17 24 9 13 1019.6 1019.9 0.0
04/03:00pm 17.3 14.1 8.4 56 4.6 WNW 15 20 8 11 1019.8 1020.1 0.0
04/02:30pm 18.5 14.8 7.9 50 5.5 WNW 17 28 9 15 1019.6 1019.9 0.0
04/02:00pm 18.8 15.8 9.3 54 5.1 WNW 15 24 8 13 1019.6 1019.9 0.0
04/01:30pm 17.9 15.3 9.3 57 4.6 WSW 13 19 7 10 1019.9 1020.2 0.0
04/01:00pm 16.4 13.7 8.9 61 3.9 W 13 20 7 11 1020.4 1020.7 0.0
04/12:30pm 16.6 13.7 9.5 63 3.8 WNW 15 26 8 14 1020.8 1021.1 0.0
04/12:00pm 16.2 13.0 9.8 66 3.4 WNW 17 22 9 12 1021.2 1021.5 0.0
04/11:30am 16.2 14.2 11.4 73 2.6 W 13 19 7 10 1021.6 1022.0 0.0
04/11:00am 15.4 13.3 11.2 76 2.3 W 13 19 7 10 1022.1 1022.5 0.0
04/10:30am 15.0 13.1 11.8 81 1.8 WNW 13 19 7 10 1022.4 1022.7 0.0
04/10:00am 13.9 13.0 12.5 91 0.8 WNW 9 15 5 8 1022.5 1022.8 0.0
04/09:30am 12.9 11.7 11.6 92 0.7 WNW 9 15 5 8 1022.5 1022.8 0.0
04/09:00am 13.1 12.5 11.8 92 0.7 WNW 6 9 3 5 1022.3 1022.6 0.2
04/08:30am 11.7 10.7 10.4 92 0.7 NW 6 11 3 6 1022.3 1022.6 0.2
04/08:00am 11.3 10.6 10.2 93 0.6 NNW 4 7 2 4 1022.0 1022.4 0.2
04/07:30am 10.3 9.4 9.1 92 0.6 NNE 4 6 2 3 1022.0 1022.4 0.2
04/07:00am 10.0 9.7 8.8 92 0.6 CALM 0 0 0 0 1021.8 1022.2 0.2
04/06:30am 9.6 9.2 8.4 92 0.6 CALM 0 0 0 0 1021.8 1022.2 0.2
04/06:00am 9.2 8.7 8.0 92 0.6 CALM 0 0 0 0 1021.6 1022.0 0.2
04/05:30am 8.9 8.4 7.7 92 0.6 CALM 0 2 0 1 1021.4 1021.8 0.2
04/05:00am 8.7 8.1 7.5 92 0.6 CALM 0 0 0 0 1021.3 1021.7 0.2
04/04:30am 10.7 10.2 9.5 92 0.6 WSW 2 4 1 2 1021.3 1021.7 0.2
04/04:00am 11.0 9.9 9.9 93 0.6 W 6 7 3 4 1021.6 1022.0 0.2
04/03:30am 7.4 6.5 6.2 92 0.6 CALM 0 0 0 0 1021.8 1022.2 0.2
04/03:00am 6.3 5.2 4.9 91 0.6 CALM 0 4 0 2 1021.8 1022.2 0.2
04/02:30am 6.4 4.5 5.0 91 0.6 W 4 6 2 3 1021.9 1022.3 0.2
04/02:00am 6.8 5.7 5.3 90 0.7 CALM 0 0 0 0 1022.0 1022.4 0.2
04/01:30am 7.9 6.3 6.5 91 0.7 NNE 4 6 2 3 1022.1 1022.5 0.2
04/01:00am 9.8 8.1 8.4 91 0.7 W 7 9 4 5 1021.9 1022.3 0.2
04/12:30am 10.8 9.0 9.6 92 0.6 W 9 11 5 6 1022.1 1022.5 0.2
04/12:00am 9.6 7.9 8.2 91 0.7 W 7 9 4 5 1022.3 1022.6 0.2
 
Date/Time
WST
Temp
°C
App
Temp
°C
Dew
Point
Rel
Hum
%
Delta-T
°C
Wind Press
QNH
hPa
Press
MSL
hPa
Rain
since 9 am
mm
Dir
 
Spd
km/h
Gust
km/h
Spd
kts
Gust
kts
03/11:30pm 9.9 8.2 8.5 91 0.7 W 7 7 4 4 1022.4 1022.7 0.2
03/11:00pm 10.2 8.6 8.6 90 0.8 W 7 9 4 5 1022.4 1022.7 0.2
03/10:30pm 10.5 9.0 9.1 91 0.7 W 7 9 4 5 1022.5 1022.8 0.2
03/10:00pm 9.9 8.2 8.3 90 0.8 WNW 7 9 4 5 1022.7 1023.0 0.2
03/09:30pm 8.6 7.1 6.7 88 0.9 WNW 4 4 2 2 1022.6 1022.9 0.2
03/09:00pm 8.5 6.9 6.5 87 0.9 WNW 4 6 2 3 1022.8 1023.1 0.2
03/08:30pm 10.0 8.4 7.8 86 1.1 WNW 6 7 3 4 1022.8 1023.1 0.2
03/08:00pm 10.7 9.6 8.3 85 1.2 W 4 4 2 2 1022.8 1023.1 0.2
03/07:30pm 11.5 10.4 8.5 82 1.5 W 4 6 2 3 1022.7 1023.0 0.2
03/07:00pm 13.9 12.8 10.1 78 2.0 W 6 7 3 4 1022.7 1023.0 0.2
03/06:30pm 15.4 14.0 11.0 75 2.4 WSW 9 13 5 7 1022.6 1022.9 0.2
03/06:00pm 15.4 13.1 10.6 73 2.6 WSW 13 19 7 10 1022.3 1022.6 0.2
03/05:30pm 15.3 14.2 10.5 73 2.6 W 7 13 4 7 1021.9 1022.3 0.2
03/05:00pm 16.6 14.9 11.3 71 2.9 W 11 17 6 9 1021.7 1022.1 0.2
03/04:30pm 17.3 15.7 11.6 69 3.2 WNW 11 17 6 9 1021.4 1021.8 0.2
03/04:00pm 18.3 16.1 12.1 67 3.5 NW 15 19 8 10 1021.3 1021.7 0.2
03/03:30pm 17.7 16.1 11.5 67 3.4 WNW 11 15 6 8 1021.2 1021.5 0.2
03/03:00pm 18.0 16.0 11.6 66 3.5 NNW 13 19 7 10 1021.1 1021.4 0.2
03/02:30pm 18.0 16.3 11.3 65 3.7 NW 11 15 6 8 1020.9 1021.2 0.2
03/02:00pm 18.3 16.1 10.9 62 4.1 NW 13 17 7 9 1020.9 1021.2 0.2
03/01:30pm 18.0 16.6 10.9 63 3.9 NW 9 13 5 7 1021.0 1021.3 0.2
03/01:00pm 19.0 17.1 10.6 58 4.6 NW 11 17 6 9 1021.1 1021.4 0.2
03/12:30pm 18.9 17.7 11.7 63 4.0 NW 9 13 5 7 1021.4 1021.8 0.0
03/12:00pm 18.4 17.2 11.5 64 3.8 W 9 15 5 8 1021.7 1022.1 0.0
03/11:30am 18.0 16.2 10.9 63 3.9 WNW 11 15 6 8 1022.1 1022.5 0.0
03/11:00am 17.2 15.7 10.6 65 3.6 NW 9 15 5 8 1022.6 1022.9 0.0
03/10:30am 16.6 15.1 10.7 68 3.2 NNW 9 15 5 8 1022.8 1023.1 0.0
03/10:00am 15.3 13.3 10.3 72 2.7 N 11 13 6 7 1023.0 1023.3 0.0
03/09:30am 14.1 12.4 9.9 76 2.2 N 9 11 5 6 1023.0 1023.3 0.0
03/09:00am 12.9 11.8 10.1 83 1.5 N 6 9 3 5 1023.0 1023.3 0.0
03/08:30am 11.4 11.4 9.8 90 0.8 CALM 0 2 0 1 1023.0 1023.3 0.0
03/08:00am 9.8 9.4 8.4 91 0.7 CALM 0 0 0 0 1022.8 1023.1 0.0
03/07:30am 6.9 5.8 5.1 88 0.8 CALM 0 0 0 0 1022.5 1022.8 0.0
03/07:00am 7.4 6.4 5.4 87 0.9 CALM 0 2 0 1 1022.5 1022.8 0.0
03/06:30am 10.2 9.4 8.3 88 0.9 N 2 4 1 2 1022.1 1022.5 0.0
03/06:00am 9.8 8.9 7.7 87 1.0 N 2 6 1 3 1021.9 1022.3 0.0
03/05:30am 9.9 9.4 7.8 87 1.0 CALM 0 0 0 0 1021.9 1022.3 0.0
03/05:00am 10.4 10.0 8.2 86 1.1 CALM 0 4 0 2 1021.6 1022.0 0.0
03/04:30am 10.6 10.3 8.5 87 1.0 CALM 0 2 0 1 1021.8 1022.2 0.0
03/04:00am 10.2 9.4 8.0 86 1.1 NW 2 4 1 2 1022.0 1022.4 0.0
03/03:30am 10.3 9.4 7.9 85 1.2 NW 2 4 1 2 1022.3 1022.6 0.0
03/03:00am 10.8 9.3 8.4 85 1.2 NW 6 7 3 4 1022.3 1022.6 0.0
03/02:30am 10.9 9.8 8.5 85 1.2 WNW 4 6 2 3 1022.4 1022.7 0.0
03/02:00am 11.0 9.9 8.4 84 1.3 WNW 4 6 2 3 1022.5 1022.8 0.0
03/01:30am 11.2 9.5 8.4 83 1.4 NNW 7 11 4 6 1022.4 1022.7 0.0
03/01:00am 11.3 8.1 8.5 83 1.4 NNW 15 19 8 10 1022.4 1022.7 0.0
03/12:30am 11.6 8.8 8.6 82 1.5 N 13 17 7 9 1022.5 1022.8 0.0
03/12:00am 11.9 9.1 8.7 81 1.6 N 13 17 7 9 1022.8 1023.1 0.0
 
Date/Time
WST
Temp
°C
App
Temp
°C
Dew
Point
Rel
Hum
%
Delta-T
°C
Wind Press
QNH
hPa
Press
MSL
hPa
Rain
since 9 am
mm
Dir
 
Spd
km/h
Gust
km/h
Spd
kts
Gust
kts
02/11:30pm 12.1 9.4 8.8 80 1.7 N 13 17 7 9 1022.9 1023.2 0.0
02/11:00pm 12.3 10.0 9.1 81 1.6 N 11 13 6 7 1023.1 1023.4 0.0
02/10:30pm 12.2 10.4 9.4 83 1.4 N 9 11 5 6 1023.2 1023.5 0.0
02/10:00pm 11.6 11.4 9.2 85 1.2 CALM 0 0 0 0 1023.2 1023.5 0.0
02/09:30pm 11.7 11.5 8.9 83 1.4 CALM 0 0 0 0 1023.1 1023.4 0.0

Other Formats:

Comma delimited format used in spreadsheet applications
http://www.bom.gov.au/fwo/IDW60801/IDW60801.94628.axf

JavaScript Object Notation format (JSON) in row-major order
http://www.bom.gov.au/fwo/IDW60801/IDW60801.94628.json